createdAt,value
2023-03-29T00:00:37.192Z,7.19
2023-03-29T00:03:09.705Z,7.19
2023-03-29T00:05:42.329Z,7.18
2023-03-29T00:08:14.897Z,7.17
2023-03-29T00:10:44.837Z,7.16
2023-03-29T00:13:16.118Z,7.18
2023-03-29T00:15:46.888Z,7.17
2023-03-29T00:18:20.819Z,7.14
2023-03-29T00:20:58.380Z,7.13
2023-03-29T00:23:30.348Z,7.11
2023-03-29T00:26:00.923Z,7.12
2023-03-29T00:28:31.500Z,7.11
2023-03-29T00:31:07.774Z,7.10
2023-03-29T00:33:40.654Z,7.10
2023-03-29T00:36:12.649Z,7.07
2023-03-29T00:38:43.031Z,7.06
2023-03-29T00:41:13.166Z,7.05
2023-03-29T00:43:59.330Z,7.07
2023-03-29T00:46:30.709Z,7.04
2023-03-29T00:49:09.065Z,7.05
2023-03-29T00:51:41.459Z,7.04
2023-03-29T00:54:16.001Z,7.04
2023-03-29T00:56:49.969Z,7.03
2023-03-29T00:59:23.686Z,7.03
2023-03-29T01:01:56.218Z,7.02
2023-03-29T01:04:33.033Z,7.01
2023-03-29T01:07:07.298Z,7.01
2023-03-29T01:09:39.802Z,7.02
2023-03-29T01:12:15.154Z,7.02
2023-03-29T01:14:49.022Z,7.04
2023-03-29T01:17:22.076Z,7.04
2023-03-29T01:20:02.397Z,7.05
2023-03-29T01:22:39.774Z,7.04
2023-03-29T01:25:19.503Z,7.07
2023-03-29T01:27:57.775Z,7.05
2023-03-29T01:30:31.595Z,7.05
2023-03-29T01:33:05.608Z,7.06
2023-03-29T01:35:43.915Z,7.07
2023-03-29T01:38:18.845Z,7.06
2023-03-29T01:40:48.618Z,7.06
2023-03-29T01:43:27.354Z,7.10
2023-03-29T01:46:05.609Z,7.11
2023-03-29T01:48:43.370Z,7.13
2023-03-29T01:51:17.804Z,7.12
2023-03-29T01:53:56.695Z,7.11
2023-03-29T01:56:28.899Z,7.10
2023-03-29T01:59:06.886Z,7.11
2023-03-29T02:01:41.332Z,7.11
2023-03-29T02:04:13.940Z,7.12
2023-03-29T02:06:45.070Z,7.14
2023-03-29T02:09:15.607Z,7.12
2023-03-29T02:11:47.708Z,7.12
2023-03-29T02:14:20.260Z,7.13
2023-03-29T02:16:50.270Z,7.11
2023-03-29T02:19:24.234Z,7.12
2023-03-29T02:22:02.127Z,7.14
2023-03-29T02:24:33.859Z,7.10
2023-03-29T02:27:04.909Z,7.10
2023-03-29T02:29:37.330Z,7.11
2023-03-29T02:32:16.125Z,7.10
2023-03-29T02:34:53.230Z,7.09
2023-03-29T02:37:24.704Z,7.08
2023-03-29T02:39:55.651Z,7.09
2023-03-29T02:42:27.575Z,7.08
2023-03-29T02:45:03.081Z,7.10
2023-03-29T02:47:38.063Z,7.09
2023-03-29T02:50:10.715Z,7.09
2023-03-29T02:52:44.050Z,7.09
2023-03-29T02:55:19.147Z,7.08
2023-03-29T02:57:48.921Z,7.09
2023-03-29T03:00:23.480Z,7.09
2023-03-29T03:02:53.619Z,7.12
2023-03-29T03:05:24.096Z,7.14
2023-03-29T03:07:53.898Z,7.14
2023-03-29T03:10:23.688Z,7.13
2023-03-29T03:12:53.606Z,7.14
2023-03-29T03:15:26.615Z,7.13
2023-03-29T03:17:57.358Z,7.12
2023-03-29T03:20:27.441Z,7.12
2023-03-29T03:22:57.879Z,7.12
2023-03-29T03:25:28.953Z,7.12
2023-03-29T03:27:58.959Z,7.12
2023-03-29T03:30:31.865Z,7.12
2023-03-29T03:33:01.757Z,7.11
2023-03-29T03:35:31.533Z,7.10
2023-03-29T03:38:01.928Z,7.11
2023-03-29T03:40:32.448Z,7.14
2023-03-29T03:43:02.292Z,7.14
2023-03-29T03:45:36.166Z,7.17
2023-03-29T03:48:06.106Z,7.15
2023-03-29T03:50:35.936Z,7.16
2023-03-29T03:53:05.696Z,7.15
2023-03-29T03:55:35.542Z,7.14
2023-03-29T03:58:05.311Z,7.14
2023-03-29T04:00:37.803Z,7.13
2023-03-29T04:03:07.695Z,7.13
2023-03-29T04:05:42.086Z,7.14
2023-03-29T04:08:12.756Z,7.12
2023-03-29T04:10:42.633Z,7.11
2023-03-29T04:13:13.055Z,7.10
2023-03-29T04:15:46.306Z,7.12
2023-03-29T04:18:17.149Z,7.14
2023-03-29T04:20:50.136Z,7.13
2023-03-29T04:23:20.208Z,7.14
2023-03-29T04:25:50.338Z,7.17
2023-03-29T04:28:20.104Z,7.18
2023-03-29T04:30:52.567Z,7.19
2023-03-29T04:33:25.040Z,7.20
2023-03-29T04:35:54.902Z,7.19
2023-03-29T04:38:26.873Z,7.20
2023-03-29T04:40:57.160Z,7.21
2023-03-29T04:43:27.054Z,7.22
2023-03-29T04:45:59.705Z,7.20
2023-03-29T04:48:31.784Z,7.20
2023-03-29T04:51:02.304Z,7.19
2023-03-29T04:53:32.252Z,7.20
2023-03-29T04:56:02.774Z,7.20
2023-03-29T04:58:32.868Z,7.21
2023-03-29T05:01:06.811Z,7.22
2023-03-29T05:03:36.676Z,7.22
2023-03-29T05:06:07.785Z,7.23
2023-03-29T05:08:39.167Z,7.23
2023-03-29T05:11:10.522Z,7.23
2023-03-29T05:13:41.071Z,7.23
2023-03-29T05:16:14.043Z,7.24
2023-03-29T05:18:46.177Z,7.24
2023-03-29T05:21:15.983Z,7.26
2023-03-29T05:23:45.985Z,7.26
2023-03-29T05:26:15.777Z,7.25
2023-03-29T05:28:46.247Z,7.27
2023-03-29T05:31:20.262Z,7.26
2023-03-29T05:33:50.648Z,7.28
2023-03-29T05:36:21.785Z,7.29
2023-03-29T05:38:51.553Z,7.29
2023-03-29T05:41:21.420Z,7.28
2023-03-29T05:43:51.454Z,7.30
2023-03-29T05:46:23.812Z,7.30
2023-03-29T05:48:53.665Z,7.28
2023-03-29T05:51:24.555Z,7.30
2023-03-29T05:53:54.518Z,7.33
2023-03-29T05:56:25.033Z,7.34
2023-03-29T05:58:57.189Z,7.35
2023-03-29T06:01:29.679Z,7.36
2023-03-29T06:03:59.653Z,7.37
2023-03-29T06:06:29.687Z,7.40
2023-03-29T06:08:59.488Z,7.40
2023-03-29T06:11:29.391Z,7.43
2023-03-29T06:13:59.140Z,7.45
2023-03-29T06:16:32.721Z,7.48
2023-03-29T06:19:05.585Z,7.50
2023-03-29T06:21:35.406Z,7.53
2023-03-29T06:24:05.170Z,7.54
2023-03-29T06:26:35.475Z,7.57
2023-03-29T06:29:05.295Z,7.56
2023-03-29T06:31:38.920Z,7.58
2023-03-29T06:34:08.730Z,7.59
2023-03-29T06:36:39.419Z,7.63
2023-03-29T06:39:09.934Z,7.66
2023-03-29T06:41:39.791Z,7.68
2023-03-29T06:44:10.503Z,7.71
2023-03-29T06:46:42.952Z,7.73
2023-03-29T06:49:12.916Z,7.72
2023-03-29T06:51:42.792Z,7.74
2023-03-29T06:54:20.257Z,7.76
2023-03-29T06:56:50.277Z,7.77
2023-03-29T06:59:20.106Z,7.82
2023-03-29T07:01:54.172Z,7.87
2023-03-29T07:04:25.267Z,7.88
2023-03-29T07:07:01.724Z,7.91
2023-03-29T07:09:32.779Z,7.96
2023-03-29T07:12:03.233Z,8.01
2023-03-29T07:14:33.656Z,8.03
2023-03-29T07:17:10.708Z,8.09
2023-03-29T07:19:40.515Z,8.11
2023-03-29T07:22:11.359Z,8.13
2023-03-29T07:24:41.553Z,8.14
2023-03-29T07:27:12.285Z,8.17
2023-03-29T07:29:42.331Z,8.19
2023-03-29T07:32:14.733Z,8.21
2023-03-29T07:34:45.270Z,8.22
2023-03-29T07:37:15.117Z,8.25
2023-03-29T07:39:44.937Z,8.26
2023-03-29T07:42:14.728Z,8.28
2023-03-29T07:44:44.597Z,8.30
2023-03-29T07:47:17.095Z,8.36
2023-03-29T07:49:46.878Z,8.41
2023-03-29T07:52:17.152Z,8.48
2023-03-29T07:54:46.983Z,8.53
2023-03-29T07:57:16.902Z,8.60
2023-03-29T07:59:47.023Z,8.68
2023-03-29T08:02:19.863Z,8.74
2023-03-29T08:04:50.362Z,8.80
2023-03-29T08:07:21.938Z,8.85
2023-03-29T08:09:52.015Z,8.91
2023-03-29T08:12:23.796Z,8.95
2023-03-29T08:14:54.809Z,8.97
2023-03-29T08:17:28.045Z,9.01
2023-03-29T08:19:57.870Z,9.05
2023-03-29T08:22:29.350Z,9.08
2023-03-29T08:24:59.132Z,9.12
2023-03-29T08:27:29.327Z,9.13
2023-03-29T08:29:59.185Z,9.15
2023-03-29T08:32:31.931Z,9.19
2023-03-29T08:35:04.015Z,9.21
2023-03-29T08:37:35.098Z,9.25
2023-03-29T08:40:05.779Z,9.29
2023-03-29T08:43:08.843Z,9.34
2023-03-29T08:45:45.537Z,9.34
2023-03-29T08:48:24.218Z,9.39
2023-03-29T08:50:57.310Z,9.42
2023-03-29T08:53:32.169Z,9.47
2023-03-29T08:56:06.005Z,9.52
2023-03-29T08:58:38.492Z,9.60
2023-03-29T09:01:11.814Z,9.63
2023-03-29T09:03:48.381Z,9.72
2023-03-29T09:06:23.226Z,9.80
2023-03-29T09:08:54.949Z,9.87
2023-03-29T09:11:37.911Z,9.94
2023-03-29T09:14:22.569Z,10.01
2023-03-29T09:17:00.734Z,10.08
2023-03-29T09:19:43.332Z,10.13
2023-03-29T09:22:22.696Z,10.22
2023-03-29T09:25:04.752Z,10.33
2023-03-29T09:27:37.981Z,10.41
2023-03-29T09:30:26.778Z,10.52
2023-03-29T09:32:59.683Z,10.58
2023-03-29T09:35:35.187Z,10.67
2023-03-29T09:38:05.905Z,10.74
2023-03-29T09:40:41.120Z,10.78
2023-03-29T09:43:15.253Z,10.84
2023-03-29T09:45:46.194Z,10.88
2023-03-29T09:48:18.358Z,10.92
2023-03-29T09:50:54.244Z,10.95
2023-03-29T09:53:25.154Z,10.97
2023-03-29T09:55:55.601Z,11.02
2023-03-29T09:58:28.072Z,11.07
2023-03-29T10:01:04.166Z,11.07
2023-03-29T10:03:35.387Z,11.08
2023-03-29T10:06:12.917Z,11.05
2023-03-29T10:08:47.206Z,11.06
2023-03-29T10:11:24.395Z,11.07
2023-03-29T10:13:59.588Z,11.05
2023-03-29T10:16:33.427Z,11.03
2023-03-29T10:19:21.881Z,11.03
2023-03-29T10:21:55.780Z,11.03
2023-03-29T10:24:27.517Z,11.03
2023-03-29T10:27:01.863Z,11.05
2023-03-29T10:29:39.831Z,11.04
2023-03-29T10:32:18.690Z,11.01
2023-03-29T10:34:49.902Z,11.00
2023-03-29T10:37:24.119Z,10.99
2023-03-29T10:39:55.081Z,11.03
2023-03-29T10:42:28.854Z,11.05
2023-03-29T10:45:00.527Z,11.10
2023-03-29T10:47:35.214Z,11.15
2023-03-29T10:50:10.034Z,11.20
2023-03-29T10:52:43.135Z,11.25
2023-03-29T10:55:16.162Z,11.31
2023-03-29T10:57:57.212Z,11.39
2023-03-29T11:00:35.176Z,11.47
2023-03-29T11:03:22.643Z,11.52
2023-03-29T11:06:00.002Z,11.58
2023-03-29T11:08:45.866Z,11.68
2023-03-29T11:11:31.226Z,11.76
2023-03-29T11:14:09.552Z,11.80
2023-03-29T11:16:47.115Z,11.87
2023-03-29T11:19:51.765Z,11.95
2023-03-29T11:22:27.002Z,11.98
2023-03-29T11:25:29.729Z,12.06
2023-03-29T11:28:04.856Z,12.15
2023-03-29T11:30:41.746Z,12.23
2023-03-29T11:33:23.346Z,12.30
2023-03-29T11:36:07.298Z,12.36
2023-03-29T11:38:45.174Z,12.43
2023-03-29T11:41:21.812Z,12.46
2023-03-29T11:46:37.404Z,12.55
2023-03-29T11:49:17.038Z,12.60
2023-03-29T11:51:53.871Z,12.63
2023-03-29T11:54:29.578Z,12.66
2023-03-29T11:57:07.399Z,12.73
2023-03-29T11:59:43.991Z,12.73
2023-03-29T12:02:22.437Z,12.77
2023-03-29T12:04:56.107Z,12.79
2023-03-29T12:07:32.830Z,12.80
2023-03-29T12:10:09.789Z,12.80
2023-03-29T12:12:47.920Z,12.83
2023-03-29T12:15:22.006Z,12.88
2023-03-29T12:18:02.894Z,12.93
2023-03-29T12:20:35.947Z,13.00
2023-03-29T12:23:06.237Z,13.09
2023-03-29T12:25:44.351Z,13.17
2023-03-29T12:28:52.515Z,13.26
2023-03-29T12:31:31.946Z,13.33
2023-03-29T12:34:23.996Z,13.40
2023-03-29T12:37:11.866Z,13.41
2023-03-29T12:39:53.660Z,13.44
2023-03-29T12:42:25.220Z,13.46
2023-03-29T12:45:08.523Z,13.47
2023-03-29T12:47:47.866Z,13.48
2023-03-29T12:50:29.426Z,13.50
2023-03-29T12:53:08.224Z,13.53
2023-03-29T12:55:52.530Z,13.57
2023-03-29T12:58:40.416Z,13.57
2023-03-29T13:01:25.615Z,13.56
2023-03-29T13:04:00.331Z,13.55
2023-03-29T13:06:34.041Z,13.56
2023-03-29T13:09:06.022Z,13.55
2023-03-29T13:11:43.499Z,13.54
2023-03-29T13:14:19.164Z,13.51
2023-03-29T13:16:51.838Z,13.48
2023-03-29T13:19:33.086Z,13.47
2023-03-29T13:22:20.632Z,13.49
2023-03-29T13:25:07.171Z,13.48
2023-03-29T13:27:48.425Z,13.42
2023-03-29T13:30:26.997Z,13.39
2023-03-29T13:33:30.305Z,13.39
2023-03-29T13:36:09.940Z,13.35
2023-03-29T13:38:49.144Z,13.35
2023-03-29T13:41:45.517Z,13.34
2023-03-29T13:44:32.532Z,13.34
2023-03-29T13:47:09.018Z,13.35
2023-03-29T13:49:39.026Z,13.34
2023-03-29T13:52:20.220Z,13.37
2023-03-29T13:54:58.717Z,13.37
2023-03-29T13:57:36.279Z,13.39
2023-03-29T14:00:18.323Z,13.46
2023-03-29T14:02:55.343Z,13.55
2023-03-29T14:05:31.173Z,13.60
2023-03-29T14:08:10.862Z,13.62
2023-03-29T14:10:44.655Z,13.66
2023-03-29T14:13:16.176Z,13.71
2023-03-29T14:15:48.856Z,13.76
2023-03-29T14:18:26.449Z,13.80
2023-03-29T14:20:58.641Z,13.82
2023-03-29T14:23:33.519Z,13.85
2023-03-29T14:26:10.867Z,13.89
2023-03-29T14:28:48.156Z,13.90
2023-03-29T14:31:22.455Z,13.91
2023-03-29T14:33:55.425Z,13.94
2023-03-29T14:36:26.609Z,14.01
2023-03-29T14:39:03.123Z,14.07
2023-03-29T14:41:34.482Z,14.10
2023-03-29T14:44:09.780Z,14.15
2023-03-29T14:46:42.454Z,14.21
2023-03-29T14:49:13.422Z,14.24
2023-03-29T14:51:46.789Z,14.28
2023-03-29T14:54:25.262Z,14.35
2023-03-29T14:56:55.616Z,14.39
2023-03-29T14:59:30.162Z,14.40
2023-03-29T15:02:03.780Z,14.42
2023-03-29T15:04:39.217Z,14.43
2023-03-29T15:07:09.969Z,14.44
2023-03-29T15:09:44.565Z,14.46
2023-03-29T15:12:19.232Z,14.47
2023-03-29T15:14:51.431Z,14.46
2023-03-29T15:17:42.979Z,14.49
2023-03-29T15:20:21.621Z,14.51
2023-03-29T15:23:02.126Z,14.53
2023-03-29T15:25:40.202Z,14.54
2023-03-29T15:28:27.921Z,14.55
2023-03-29T15:33:38.382Z,14.54
2023-03-29T15:36:10.410Z,14.53
2023-03-29T15:38:44.743Z,14.54
2023-03-29T15:41:18.784Z,14.55
2023-03-29T15:43:49.557Z,14.54
2023-03-29T15:46:21.539Z,14.55
2023-03-29T15:48:51.550Z,14.51
2023-03-29T15:51:21.819Z,14.50
2023-03-29T15:53:51.669Z,14.48
2023-03-29T15:56:25.312Z,14.45
2023-03-29T15:58:55.402Z,14.43
2023-03-29T16:01:33.850Z,14.39
2023-03-29T16:04:06.095Z,14.34
2023-03-29T16:06:37.409Z,14.32
2023-03-29T16:09:08.997Z,14.29
2023-03-29T16:11:42.142Z,14.28
2023-03-29T16:14:25.652Z,14.31
2023-03-29T16:16:55.861Z,14.27
2023-03-29T16:19:28.484Z,14.25
2023-03-29T16:21:59.187Z,14.21
2023-03-29T16:24:38.540Z,14.19
2023-03-29T16:27:15.841Z,14.17
2023-03-29T16:29:46.121Z,14.15
2023-03-29T16:32:17.413Z,14.14
2023-03-29T16:34:47.751Z,14.13
2023-03-29T16:37:18.104Z,14.10
2023-03-29T16:39:50.698Z,14.06
2023-03-29T16:42:25.068Z,14.01
2023-03-29T16:44:56.840Z,13.95
2023-03-29T16:47:27.649Z,13.91
2023-03-29T16:49:57.798Z,13.84
2023-03-29T16:52:27.944Z,13.77
2023-03-29T16:54:57.877Z,13.70
2023-03-29T16:57:30.533Z,13.63
2023-03-29T17:00:01.293Z,13.55
2023-03-29T17:02:31.185Z,13.49
2023-03-29T17:05:01.201Z,13.42
2023-03-29T17:07:31.196Z,13.36
2023-03-29T17:10:01.322Z,13.31
2023-03-29T17:12:34.175Z,13.30
2023-03-29T17:15:04.432Z,13.28
2023-03-29T17:17:34.421Z,13.26
2023-03-29T17:20:14.862Z,13.23
2023-03-29T17:22:44.925Z,13.20
2023-03-29T17:25:14.869Z,13.16
2023-03-29T17:27:47.859Z,13.17
2023-03-29T17:30:18.670Z,13.13
2023-03-29T17:32:49.363Z,13.09
2023-03-29T17:35:19.500Z,13.07
2023-03-29T17:37:49.458Z,13.06
2023-03-29T17:40:20.990Z,13.04
2023-03-29T17:42:54.540Z,13.01
2023-03-29T17:45:24.617Z,12.97
2023-03-29T17:47:54.766Z,12.93
2023-03-29T17:50:24.871Z,12.89
2023-03-29T17:52:54.935Z,12.86
2023-03-29T17:55:24.837Z,12.82
2023-03-29T17:57:57.382Z,12.80
2023-03-29T18:00:27.550Z,12.75
2023-03-29T18:03:01.161Z,12.75
2023-03-29T18:05:31.206Z,12.74
2023-03-29T18:08:01.080Z,12.71
2023-03-29T18:10:31.449Z,12.69
2023-03-29T18:13:06.350Z,12.69
2023-03-29T18:15:39.376Z,12.67
2023-03-29T18:18:09.345Z,12.67
2023-03-29T18:20:39.291Z,12.65
2023-03-29T18:23:14.470Z,12.64
2023-03-29T18:25:44.397Z,12.62
2023-03-29T18:28:16.831Z,12.60
2023-03-29T18:30:46.713Z,12.56
2023-03-29T18:33:16.667Z,12.56
2023-03-29T18:35:51.985Z,12.52
2023-03-29T18:38:23.408Z,12.52
2023-03-29T18:40:53.600Z,12.52
2023-03-29T18:43:26.093Z,12.51
2023-03-29T18:45:58.453Z,12.49
2023-03-29T18:48:28.579Z,12.44
2023-03-29T18:50:59.326Z,12.39
2023-03-29T18:53:29.218Z,12.36
2023-03-29T18:55:59.577Z,12.37
2023-03-29T18:58:33.347Z,12.38
2023-03-29T19:01:05.028Z,12.38
2023-03-29T19:03:36.155Z,12.39
2023-03-29T19:06:07.636Z,12.42
2023-03-29T19:08:39.903Z,12.42
2023-03-29T19:11:12.116Z,12.46
2023-03-29T19:13:46.543Z,12.46
2023-03-29T19:16:16.690Z,12.45
2023-03-29T19:18:46.998Z,12.46
2023-03-29T19:21:17.068Z,12.45
2023-03-29T19:23:47.137Z,12.45
2023-03-29T19:26:17.090Z,12.43
2023-03-29T19:28:49.598Z,12.43
2023-03-29T19:31:23.493Z,12.43
2023-03-29T19:33:53.639Z,12.41
2023-03-29T19:36:23.785Z,12.41
2023-03-29T19:38:54.433Z,12.41
2023-03-29T19:41:29.059Z,12.40
2023-03-29T19:44:01.646Z,12.40
2023-03-29T19:46:31.741Z,12.40
2023-03-29T19:49:07.766Z,12.41
2023-03-29T19:51:37.745Z,12.41
2023-03-29T19:54:09.402Z,12.39
2023-03-29T19:59:43.690Z,12.36
2023-03-29T20:02:17.220Z,12.38
2023-03-29T20:04:47.456Z,12.38
2023-03-29T20:07:17.353Z,12.40
2023-03-29T20:09:47.831Z,12.41
2023-03-29T20:12:20.222Z,12.41
2023-03-29T20:14:52.824Z,12.40
2023-03-29T20:17:22.761Z,12.39
2023-03-29T20:19:54.189Z,12.39
2023-03-29T20:22:26.218Z,12.37
2023-03-29T20:24:56.496Z,12.37
2023-03-29T20:27:26.518Z,12.35
2023-03-29T20:29:59.417Z,12.36
2023-03-29T20:32:29.323Z,12.35
2023-03-29T20:35:04.510Z,12.32
2023-03-29T20:37:34.528Z,12.30
2023-03-29T20:40:05.662Z,12.30
2023-03-29T20:42:36.947Z,12.28
2023-03-29T20:45:18.790Z,12.27
2023-03-29T20:47:50.675Z,12.23
2023-03-29T20:50:26.448Z,12.20
2023-03-29T20:52:57.130Z,12.21
2023-03-29T20:55:27.511Z,12.22
2023-03-29T20:57:58.448Z,12.22
2023-03-29T21:00:33.826Z,12.22
2023-03-29T21:03:04.257Z,12.21
2023-03-29T21:05:36.314Z,12.21
2023-03-29T21:08:06.764Z,12.19
2023-03-29T21:10:36.746Z,12.20
2023-03-29T21:13:06.609Z,12.20
2023-03-29T21:15:40.871Z,12.21
2023-03-29T21:18:12.665Z,12.20
2023-03-29T21:20:42.576Z,12.22
2023-03-29T21:23:12.547Z,12.21
2023-03-29T21:25:44.016Z,12.23
2023-03-29T21:28:13.962Z,12.23
2023-03-29T21:30:46.646Z,12.22
2023-03-29T21:33:16.648Z,12.22
2023-03-29T21:35:46.634Z,12.22
2023-03-29T21:38:16.639Z,12.24
2023-03-29T21:40:46.578Z,12.24
2023-03-29T21:43:17.976Z,12.24
2023-03-29T21:46:07.086Z,12.24
2023-03-29T21:48:37.201Z,12.23
2023-03-29T21:51:07.730Z,12.25
2023-03-29T21:53:37.840Z,12.24
2023-03-29T21:56:08.658Z,12.27
2023-03-29T21:58:39.668Z,12.27
2023-03-29T22:01:13.070Z,12.28
2023-03-29T22:03:43.811Z,12.28
2023-03-29T22:06:18.738Z,12.28
2023-03-29T22:08:54.169Z,12.29
2023-03-29T22:11:25.928Z,12.30
2023-03-29T22:13:55.950Z,12.28
2023-03-29T22:16:28.683Z,12.30
2023-03-29T22:18:58.549Z,12.31
2023-03-29T22:21:33.596Z,12.32
2023-03-29T22:24:03.940Z,12.31
2023-03-29T22:26:38.503Z,12.32
2023-03-29T22:29:08.406Z,12.32
2023-03-29T22:31:42.439Z,12.33
2023-03-29T22:34:12.453Z,12.34
2023-03-29T22:36:42.430Z,12.35
2023-03-29T22:39:13.638Z,12.34
2023-03-29T22:41:43.607Z,12.33
2023-03-29T22:44:13.524Z,12.36
2023-03-29T22:46:46.110Z,12.34
2023-03-29T22:49:18.932Z,12.33
2023-03-29T22:51:49.178Z,12.34
2023-03-29T22:54:19.098Z,12.34
2023-03-29T22:56:53.527Z,12.35
2023-03-29T22:59:23.690Z,12.34
2023-03-29T23:01:56.717Z,12.34
2023-03-29T23:04:27.230Z,12.33
2023-03-29T23:06:57.482Z,12.34
2023-03-29T23:09:32.758Z,12.32
2023-03-29T23:12:02.722Z,12.33
2023-03-29T23:14:34.114Z,12.35
2023-03-29T23:17:06.640Z,12.39
2023-03-29T23:19:36.813Z,12.41
2023-03-29T23:22:06.892Z,12.42
2023-03-29T23:24:36.816Z,12.44
2023-03-29T23:27:06.910Z,12.47
2023-03-29T23:29:38.107Z,12.48
2023-03-29T23:32:10.863Z,12.49
2023-03-29T23:34:41.154Z,12.49
2023-03-29T23:37:11.189Z,12.52
2023-03-29T23:39:42.084Z,12.53
2023-03-29T23:42:12.325Z,12.52
2023-03-29T23:44:44.338Z,12.51
2023-03-29T23:47:17.063Z,12.53
2023-03-29T23:49:47.063Z,12.53
2023-03-29T23:52:17.687Z,12.53
2023-03-29T23:54:47.639Z,12.53
2023-03-29T23:57:17.708Z,12.54
2023-03-29T23:59:47.745Z,12.55
